Time;durP1;ratioP1;P1;durP2;ratioP2;P2;SDS_P1;SDS_P2;PMS_P1;PMS_P2;Temp;Humidity;BMP_temperature;BMP_pressure;BME280_temperature;BME280_humidity;BME280_pressure;Samples;Min_cycle;Max_cycle;Signal;HPM_P1;HPM_P2
2022/11/21 00:01:56;;;;;;;7.43;5.22;;;;;;;12.33;69.02;100001.28;5041025;28;20449;-81
2022/11/21 00:04:21;;;;;;;8.27;5.57;;;;;;;12.37;69.10;99991.88;5029948;28;20452;-81
2022/11/21 00:06:50;;;;;;;7.28;5.38;;;;;;;12.31;69.33;100003.31;5015858;28;20380;-82
2022/11/21 00:09:15;;;;;;;6.88;5.20;;;;;;;12.19;69.67;100001.22;5035724;28;20457;-84
2022/11/21 00:11:41;;;;;;;6.45;5.63;;;;;;;12.15;69.93;100010.59;5012546;28;20461;-83
2022/11/21 00:14:06;;;;;;;6.97;5.90;;;;;;;12.20;69.85;100004.69;4995642;28;20899;-82
2022/11/21 00:16:31;;;;;;;7.53;4.82;;;;;;;12.24;69.58;100028.03;5013025;28;20868;-81
2022/11/21 00:18:57;;;;;;;6.00;4.23;;;;;;;12.12;69.70;100037.56;4995046;28;20391;-79
2022/11/21 00:21:22;;;;;;;5.57;4.10;;;;;;;12.03;70.03;100034.25;5011777;28;20399;-79
2022/11/21 00:23:48;;;;;;;6.77;4.60;;;;;;;12.01;69.90;100030.97;5011768;28;20376;-79
2022/11/21 00:26:15;;;;;;;5.40;3.80;;;;;;;11.89;70.30;100037.00;5013303;28;20401;-79
2022/11/21 00:28:41;;;;;;;5.63;3.28;;;;;;;11.72;70.75;100036.47;4996335;28;20474;-80
2022/11/21 00:31:07;;;;;;;5.47;2.90;;;;;;;11.68;70.55;100038.69;5013639;28;20872;-80
2022/11/21 00:33:36;;;;;;;3.80;2.67;;;;;;;11.56;71.30;100040.25;4995609;28;20384;-80
2022/11/21 00:36:06;;;;;;;3.90;2.17;;;;;;;11.55;70.80;100028.00;5009679;28;20387;-82
2022/11/21 00:38:32;;;;;;;4.15;2.00;;;;;;;11.56;70.97;100017.19;5017118;28;20394;-81
2022/11/21 00:40:57;;;;;;;2.88;1.88;;;;;;;11.52;71.18;100021.22;5013508;28;20380;-81
2022/11/21 00:43:23;;;;;;;2.73;1.80;;;;;;;11.53;70.97;100022.88;5012584;28;20733;-81
2022/11/21 00:45:48;;;;;;;3.83;2.07;;;;;;;11.37;71.44;100023.16;5011707;28;20864;-81
2022/11/21 00:48:14;;;;;;;3.40;2.40;;;;;;;11.42;71.46;100015.44;5017930;28;20384;-82
2022/11/21 00:50:39;;;;;;;4.80;2.20;;;;;;;11.41;71.48;100016.44;5030304;28;20420;-83
2022/11/21 00:53:04;;;;;;;3.20;2.40;;;;;;;11.57;71.34;100026.78;5006186;28;20439;-82
2022/11/21 00:55:30;;;;;;;3.10;2.20;;;;;;;11.75;70.41;100012.19;5003467;28;20410;-83
2022/11/21 00:57:55;;;;;;;2.55;2.10;;;;;;;11.70;70.16;100007.47;5030010;28;20398;-80
2022/11/21 01:00:21;;;;;;;2.90;2.00;;;;;;;11.75;70.19;99999.75;5032249;28;20400;-81
2022/11/21 01:02:46;;;;;;;2.70;1.90;;;;;;;11.74;70.20;99990.16;5023007;28;20380;-81
2022/11/21 01:05:12;;;;;;;3.70;1.70;;;;;;;11.58;70.31;99982.50;5019218;28;20389;-81
2022/11/21 01:07:37;;;;;;;2.60;1.57;;;;;;;11.42;70.75;100005.66;5011381;28;20378;-82
2022/11/21 01:10:03;;;;;;;2.05;1.40;;;;;;;11.54;70.61;99986.53;5032529;28;20402;-83
2022/11/21 01:12:30;;;;;;;2.58;1.73;;;;;;;11.74;70.06;99995.47;5022064;28;20930;-84
2022/11/21 01:14:56;;;;;;;2.10;1.50;;;;;;;11.59;70.37;99978.81;5020221;28;20410;-83
2022/11/21 01:17:21;;;;;;;3.00;1.70;;;;;;;11.65;70.56;99978.84;5024283;28;20404;-82
2022/11/21 01:19:46;;;;;;;1.92;1.20;;;;;;;11.48;70.79;99965.06;5004496;28;20388;-83
2022/11/21 01:22:12;;;;;;;2.03;1.17;;;;;;;11.53;70.87;99955.72;5021024;28;20383;-84
2022/11/21 01:24:37;;;;;;;3.05;1.33;;;;;;;11.72;70.10;99940.91;5009859;28;20731;-82
2022/11/21 01:27:03;;;;;;;1.37;1.10;;;;;;;11.74;69.67;99941.50;5018119;28;20462;-83
2022/11/21 01:29:28;;;;;;;2.15;1.15;;;;;;;11.80;69.81;99932.78;5021430;28;20402;-82
2022/11/21 01:31:54;;;;;;;2.87;2.00;;;;;;;11.79;69.68;99931.13;5032614;28;20396;-83
2022/11/21 01:34:19;;;;;;;1.97;1.23;;;;;;;11.85;69.80;99909.91;5039459;28;20418;-84
2022/11/21 01:36:45;;;;;;;2.60;1.90;;;;;;;11.98;69.02;99919.00;5036893;28;20417;-84
2022/11/21 01:39:11;;;;;;;3.13;1.83;;;;;;;11.85;69.25;99904.63;5032911;28;20867;-83
2022/11/21 01:41:42;;;;;;;1.90;1.40;;;;;;;11.88;69.32;99906.03;5033693;28;20385;-82
2022/11/21 01:44:26;;;;;;;4.03;2.30;;;;;;;11.74;69.50;99901.69;5036617;28;20382;-81
2022/11/21 01:46:52;;;;;;;3.35;1.83;;;;;;;11.70;69.73;99906.56;5003922;28;20391;-80
2022/11/21 01:49:28;;;;;;;2.45;1.80;;;;;;;11.83;69.38;99896.03;5001456;28;20492;-80
2022/11/21 01:51:59;;;;;;;2.28;1.75;;;;;;;11.89;69.50;99893.59;5004807;28;20382;-79
2022/11/21 01:54:54;;;;;;;2.20;1.85;;;;;;;11.95;69.03;99890.97;5030728;28;20423;-80
2022/11/21 01:57:28;;;;;;;3.13;1.90;;;;;;;11.99;69.03;99894.06;5025124;28;20453;-80
2022/11/21 01:59:56;;;;;;;2.70;1.95;;;;;;;12.08;68.86;99884.06;5024871;28;20919;-82
2022/11/21 02:02:27;;;;;;;3.92;2.35;;;;;;;12.04;68.77;99891.63;5000785;28;20411;-80
2022/11/21 02:04:54;;;;;;;3.17;1.75;;;;;;;12.04;68.65;99897.75;5028592;28;20442;-81
2022/11/21 02:07:22;;;;;;;2.72;1.80;;;;;;;12.08;68.88;99898.16;5019735;28;20971;-81
2022/11/21 02:09:54;;;;;;;2.95;1.75;;;;;;;12.11;68.42;99891.66;5019679;28;20459;-81
2022/11/21 02:12:38;;;;;;;2.03;1.52;;;;;;;12.10;68.41;99896.16;5017620;28;20957;-80
2022/11/21 02:15:05;;;;;;;4.40;3.45;;;;;;;11.99;68.84;99897.56;5037605;28;20433;-80
2022/11/21 02:17:31;;;;;;;4.40;3.53;;;;;;;11.93;69.16;99898.34;5035743;28;20401;-80
2022/11/21 02:20:03;;;;;;;2.75;1.70;;;;;;;11.96;69.22;99903.25;5041420;28;20373;-80
2022/11/21 02:22:29;;;;;;;4.85;1.98;;;;;;;11.98;69.01;99911.03;5037765;28;20569;-81
2022/11/21 02:25:18;;;;;;;2.97;1.80;;;;;;;11.93;69.31;99910.81;5052230;28;20912;-81
2022/11/21 02:27:45;;;;;;;2.63;1.63;;;;;;;11.88;69.66;99918.50;5010845;28;20473;-81
2022/11/21 02:30:11;;;;;;;3.10;2.10;;;;;;;11.90;69.41;99922.63;5048772;28;20442;-81
2022/11/21 02:32:46;;;;;;;2.65;1.90;;;;;;;11.78;69.62;99914.38;5037080;28;20396;-81
2022/11/21 02:35:13;;;;;;;4.13;2.00;;;;;;;11.76;69.75;99919.06;5043837;28;20464;-80
2022/11/21 02:37:39;;;;;;;2.22;1.73;;;;;;;11.71;69.97;99926.00;5050999;28;20451;-78
2022/11/21 02:40:08;;;;;;;3.40;1.65;;;;;;;11.64;70.02;99912.69;5039335;28;20480;-81
2022/11/21 02:42:57;;;;;;;2.63;1.45;;;;;;;11.68;69.69;99908.59;5035527;28;20386;-79
2022/11/21 02:45:38;;;;;;;2.00;1.30;;;;;;;11.57;70.05;99906.53;5019677;28;20413;-81
2022/11/21 02:48:04;;;;;;;2.45;1.05;;;;;;;11.39;69.94;99891.09;5045243;28;20388;-81
2022/11/21 02:50:35;;;;;;;1.60;1.20;;;;;;;11.25;70.35;99885.75;5047502;28;20905;-81
2022/11/21 02:53:02;;;;;;;2.53;1.35;;;;;;;11.31;70.36;99893.91;5019958;28;20756;-81
2022/11/21 02:55:27;;;;;;;2.08;1.10;;;;;;;11.20;70.17;99890.81;5036507;28;20407;-80
2022/11/21 02:57:53;;;;;;;2.53;1.47;;;;;;;11.22;69.95;99887.97;5040719;28;20899;-81
2022/11/21 03:00:19;;;;;;;1.47;0.87;;;;;;;11.26;70.05;99897.16;5024708;28;20960;-82
2022/11/21 03:02:44;;;;;;;2.10;1.10;;;;;;;11.19;70.47;99897.09;5039379;28;20455;-82
2022/11/21 03:05:14;;;;;;;2.40;1.20;;;;;;;11.30;69.78;99895.75;5068283;28;20406;-83
2022/11/21 03:07:40;;;;;;;2.60;1.15;;;;;;;11.36;69.79;99900.28;5043418;28;20390;-82
2022/11/21 03:10:06;;;;;;;1.73;0.90;;;;;;;11.34;69.54;99907.59;5054761;28;20452;-81
2022/11/21 03:12:35;;;;;;;2.70;1.27;;;;;;;11.31;69.91;99908.00;5053248;28;20482;-83
2022/11/21 03:15:00;;;;;;;2.47;1.13;;;;;;;11.36;69.60;99907.41;5046392;28;20932;-82
2022/11/21 03:17:26;;;;;;;2.30;1.40;;;;;;;11.31;69.84;99907.16;5037101;28;20429;-83
2022/11/21 03:19:51;;;;;;;3.37;2.67;;;;;;;11.46;69.41;99899.94;5058912;28;20488;-83
2022/11/21 03:22:17;;;;;;;2.83;1.30;;;;;;;11.50;68.77;99911.78;5055709;28;20393;-83
2022/11/21 03:24:42;;;;;;;1.20;0.60;;;;;;;11.09;68.55;99908.06;5051725;28;20961;-83
2022/11/21 03:27:07;;;;;;;1.80;0.60;;;;;;;10.77;68.95;99911.25;5040235;28;20394;-82
2022/11/21 03:29:33;;;;;;;3.27;1.73;;;;;;;10.73;68.92;99915.31;5039316;28;20386;-82
2022/11/21 03:31:59;;;;;;;2.65;0.63;;;;;;;10.68;68.89;99921.19;5025579;28;20376;-81
2022/11/21 03:34:24;;;;;;;1.73;0.60;;;;;;;10.62;68.77;99906.84;5046868;28;20427;-81
2022/11/21 03:36:50;;;;;;;1.90;0.77;;;;;;;10.48;69.04;99911.22;5040201;28;20973;-81
2022/11/21 03:39:16;;;;;;;1.02;0.63;;;;;;;10.55;68.98;99913.09;5051279;28;20388;-79
2022/11/21 03:41:41;;;;;;;1.52;0.73;;;;;;;10.58;69.12;99905.59;5036950;28;20458;-80
2022/11/21 03:44:09;;;;;;;1.30;1.10;;;;;;;10.77;69.01;99896.19;5037065;28;20387;-79
2022/11/21 03:46:37;;;;;;;1.35;0.70;;;;;;;10.93;67.97;99902.22;5040626;28;20394;-79
2022/11/21 03:49:03;;;;;;;0.90;0.60;;;;;;;10.82;68.09;99898.25;5043984;28;20397;-79
2022/11/21 03:51:29;;;;;;;1.88;0.60;;;;;;;10.70;67.90;99887.38;5036724;28;20382;-80
2022/11/21 03:53:55;;;;;;;1.52;0.70;;;;;;;10.64;67.79;99896.06;5018247;28;20402;-79
2022/11/21 03:56:20;;;;;;;1.13;0.70;;;;;;;10.66;67.90;99894.03;5023851;28;20395;-80
2022/11/21 03:58:46;;;;;;;0.90;0.60;;;;;;;10.46;67.66;99881.44;5014825;28;20380;-80
2022/11/21 04:01:12;;;;;;;2.20;0.97;;;;;;;10.51;67.82;99889.66;5004590;28;20409;-78
2022/11/21 04:03:40;;;;;;;1.67;0.90;;;;;;;10.62;67.82;99890.13;5048391;28;20393;-79
2022/11/21 04:06:06;;;;;;;1.90;0.85;;;;;;;10.74;67.44;99906.34;5042656;28;20758;-78
2022/11/21 04:08:31;;;;;;;1.77;1.67;;;;;;;10.89;66.99;99896.47;5045360;28;20382;-79
2022/11/21 04:10:57;;;;;;;2.30;1.07;;;;;;;10.69;67.04;99891.81;5043715;28;20901;-79
2022/11/21 04:13:22;;;;;;;1.23;0.70;;;;;;;10.66;67.30;99896.69;5036511;28;20452;-78
2022/11/21 04:15:48;;;;;;;1.17;0.83;;;;;;;10.70;67.14;99908.56;5042153;28;20394;-78
2022/11/21 04:18:13;;;;;;;3.50;1.77;;;;;;;10.76;67.01;99912.28;5033261;28;20578;-78
2022/11/21 04:20:39;;;;;;;1.37;1.03;;;;;;;10.70;66.58;99912.03;5015215;28;20371;-78
2022/11/21 04:23:05;;;;;;;1.63;1.00;;;;;;;10.71;66.56;99920.78;5034470;28;20416;-77
2022/11/21 04:25:32;;;;;;;18.85;17.25;;;;;;;10.68;66.67;99910.59;5039281;28;20377;-77
2022/11/21 04:27:58;;;;;;;1.70;1.02;;;;;;;10.57;66.27;99930.47;5037641;28;20386;-77
2022/11/21 04:30:24;;;;;;;1.23;1.02;;;;;;;10.40;66.27;99932.53;5034781;28;20444;-77
2022/11/21 04:32:50;;;;;;;1.55;0.90;;;;;;;10.30;66.55;99932.81;5034887;28;20390;-78
2022/11/21 04:35:16;;;;;;;1.70;1.15;;;;;;;10.32;66.23;99935.31;5034133;28;20398;-78
2022/11/21 04:37:42;;;;;;;1.60;1.20;;;;;;;10.37;65.88;99930.28;5032849;28;20396;-78
2022/11/21 04:40:08;;;;;;;2.70;1.00;;;;;;;10.54;65.48;99935.34;5010132;28;20382;-79
2022/11/21 04:42:33;;;;;;;3.10;1.20;;;;;;;10.56;65.74;99934.13;5034201;28;20406;-78
2022/11/21 04:44:59;;;;;;;1.93;1.73;;;;;;;10.57;65.32;99935.78;5036933;28;20389;-78
2022/11/21 04:47:24;;;;;;;1.10;0.90;;;;;;;10.53;65.17;99931.84;5032552;28;20394;-77
2022/11/21 04:49:50;;;;;;;4.90;4.50;;;;;;;10.56;64.99;99939.41;5034618;28;20384;-78
2022/11/21 04:52:15;;;;;;;2.03;1.30;;;;;;;10.65;65.14;99946.22;5024857;28;20763;-77
2022/11/21 04:54:40;;;;;;;2.40;1.47;;;;;;;10.65;64.75;99948.88;5033850;28;20728;-77
2022/11/21 04:57:07;;;;;;;2.58;1.30;;;;;;;10.63;64.47;99953.56;5040039;28;20404;-77
2022/11/21 04:59:32;;;;;;;1.47;0.90;;;;;;;10.58;64.51;99949.84;5036556;28;20451;-78
2022/11/21 05:01:58;;;;;;;2.60;1.30;;;;;;;10.60;64.61;99961.88;5032399;28;20396;-80
2022/11/21 05:04:23;;;;;;;3.00;2.70;;;;;;;10.52;64.74;99962.81;5029296;28;20378;-77
2022/11/21 05:06:49;;;;;;;2.60;2.40;;;;;;;10.43;64.77;99958.66;5017543;28;20422;-78
2022/11/21 05:09:14;;;;;;;1.80;1.30;;;;;;;10.37;64.38;99953.28;5038855;28;20389;-78
2022/11/21 05:14:25;;;;;;;1.65;1.05;;;;;;;10.24;63.70;99959.22;5010974;28;20918;-77
2022/11/21 05:16:51;;;;;;;1.88;1.65;;;;;;;10.14;63.75;99957.69;5013166;28;20438;-78
2022/11/21 05:19:16;;;;;;;2.13;1.80;;;;;;;10.12;63.46;99970.31;5014512;28;20403;-76
2022/11/21 05:21:43;;;;;;;1.60;1.00;;;;;;;10.19;63.40;99972.19;4994436;28;20392;-80
2022/11/21 05:24:08;;;;;;;3.00;1.50;;;;;;;10.16;63.04;99962.81;5014906;28;20394;-79
2022/11/21 05:26:34;;;;;;;3.23;2.30;;;;;;;10.19;63.48;99965.09;5017860;28;20402;-80
2022/11/21 05:28:59;;;;;;;2.67;1.30;;;;;;;10.26;63.40;99962.50;5018463;28;20469;-77
2022/11/21 05:31:25;;;;;;;2.60;1.33;;;;;;;10.37;63.08;99959.41;4999035;28;20524;-78
2022/11/21 05:33:50;;;;;;;2.27;1.40;;;;;;;10.40;63.14;99971.47;5035227;28;20471;-79
2022/11/21 05:36:16;;;;;;;2.35;1.15;;;;;;;10.32;63.32;99973.22;5024188;28;20395;-77
2022/11/21 05:38:42;;;;;;;3.27;1.70;;;;;;;10.12;63.11;99972.94;5014716;28;20877;-78
2022/11/21 05:41:07;;;;;;;5.80;2.45;;;;;;;10.07;62.86;99980.63;5018666;28;20396;-77
2022/11/21 05:43:45;;;;;;;5.07;2.40;;;;;;;10.23;62.94;99989.38;5014826;28;20411;-78
2022/11/21 05:46:12;;;;;;;3.72;2.15;;;;;;;10.25;63.11;99992.66;5014123;28;20423;-79
2022/11/21 05:48:38;;;;;;;3.72;2.03;;;;;;;10.32;62.61;99991.75;5012133;28;20399;-76
2022/11/21 05:51:04;;;;;;;2.17;1.40;;;;;;;10.32;62.68;99996.25;5012508;28;20448;-77
2022/11/21 05:53:29;;;;;;;2.15;1.60;;;;;;;10.38;63.16;100008.72;5012574;28;20398;-78
2022/11/21 05:55:55;;;;;;;3.63;1.63;;;;;;;10.30;62.39;99999.03;5010318;28;20876;-76
2022/11/21 05:58:20;;;;;;;3.72;1.80;;;;;;;10.28;62.40;100010.81;5013537;28;20396;-77
2022/11/21 06:00:46;;;;;;;2.50;1.13;;;;;;;10.00;61.52;100008.84;5012191;28;20404;-78
2022/11/21 06:03:27;;;;;;;2.13;1.20;;;;;;;9.88;62.10;100016.41;5013656;28;20449;-79
2022/11/21 06:06:14;;;;;;;1.90;1.15;;;;;;;9.72;61.77;100021.88;5013329;28;20384;-77
2022/11/21 06:08:45;;;;;;;1.85;1.00;;;;;;;9.77;61.39;100022.97;5012896;28;20384;-78
2022/11/21 06:11:13;;;;;;;2.10;1.20;;;;;;;9.81;61.92;100039.31;5013071;28;20407;-78
2022/11/21 06:13:38;;;;;;;2.10;1.40;;;;;;;9.77;61.05;100030.91;5032356;28;20402;-78
2022/11/21 06:16:05;;;;;;;3.07;1.33;;;;;;;9.76;61.15;100042.53;5032667;28;20414;-77
2022/11/21 06:18:36;;;;;;;2.43;1.30;;;;;;;9.65;60.78;100040.34;5034657;28;20394;-78
2022/11/21 06:21:08;;;;;;;3.10;1.40;;;;;;;9.74;61.60;100047.19;5050451;28;20413;-77
2022/11/21 06:23:35;;;;;;;3.83;1.30;;;;;;;9.76;61.11;100060.25;5052588;28;20400;-77
2022/11/21 06:26:03;;;;;;;1.85;1.00;;;;;;;9.61;60.55;100062.03;5052583;28;20381;-78
2022/11/21 06:28:32;;;;;;;1.38;0.82;;;;;;;9.55;60.15;100079.44;5042251;28;20406;-78
2022/11/21 06:31:02;;;;;;;2.95;1.65;;;;;;;9.72;61.73;100080.94;5031626;28;20493;-77
2022/11/21 06:33:27;;;;;;;2.60;1.20;;;;;;;9.74;60.28;100086.03;5046899;28;20388;-76
2022/11/21 06:35:53;;;;;;;2.42;1.38;;;;;;;9.74;60.47;100089.53;5053046;28;20407;-79
2022/11/21 06:38:18;;;;;;;2.73;1.67;;;;;;;9.72;59.82;100088.03;5053903;28;20395;-78
2022/11/21 06:40:44;;;;;;;1.75;1.23;;;;;;;9.70;59.72;100103.28;5055031;28;20377;-78
2022/11/21 06:43:09;;;;;;;2.93;1.70;;;;;;;9.55;59.99;100101.44;5051656;28;20424;-77
2022/11/21 06:45:35;;;;;;;2.73;1.20;;;;;;;9.63;59.84;100108.47;5048909;28;20405;-77
2022/11/21 06:48:02;;;;;;;2.80;1.50;;;;;;;9.72;59.90;100103.94;5014759;28;20483;-77
2022/11/21 06:50:30;;;;;;;5.32;3.30;;;;;;;9.76;59.33;100110.53;5047116;28;20402;-77
2022/11/21 06:52:59;;;;;;;10.57;6.35;;;;;;;9.77;60.14;100107.69;5032444;28;20803;-78
2022/11/21 06:55:26;;;;;;;20.50;12.07;;;;;;;9.87;60.02;100115.38;5033451;28;20402;-78
2022/11/21 06:57:57;;;;;;;3.72;2.13;;;;;;;9.95;59.63;100119.78;5014643;28;21271;-77
2022/11/21 07:00:23;;;;;;;2.85;1.60;;;;;;;9.93;58.56;100119.13;5033541;28;20469;-78
2022/11/21 07:02:49;;;;;;;1.45;1.00;;;;;;;9.78;58.55;100121.75;5052349;28;20385;-79
2022/11/21 07:05:14;;;;;;;3.17;1.63;;;;;;;9.71;58.39;100132.22;5053357;28;20380;-79
2022/11/21 07:07:40;;;;;;;3.60;1.88;;;;;;;9.78;59.19;100124.41;5034775;28;20389;-79
2022/11/21 07:10:06;;;;;;;2.03;1.20;;;;;;;9.62;58.95;100132.50;5036109;28;20448;-79
2022/11/21 07:15:17;;;;;;;4.32;2.60;;;;;;;9.70;59.38;100132.41;5032834;28;20925;-78
2022/11/21 07:17:43;;;;;;;3.23;1.63;;;;;;;9.87;58.95;100136.56;5034664;28;20463;-76
2022/11/21 07:20:09;;;;;;;5.30;2.80;;;;;;;9.77;57.98;100142.09;5047105;28;20402;-78
2022/11/21 07:22:34;;;;;;;2.20;1.70;;;;;;;9.73;58.13;100155.88;5033244;28;20485;-77
2022/11/21 07:25:00;;;;;;;3.47;2.20;;;;;;;9.84;58.69;100155.44;5032702;28;20466;-78
2022/11/21 07:27:26;;;;;;;3.40;2.50;;;;;;;9.76;57.71;100160.81;5040865;28;20750;-77
2022/11/21 07:29:51;;;;;;;2.93;2.17;;;;;;;9.92;58.81;100163.31;5047554;28;20520;-78
2022/11/21 07:32:17;;;;;;;2.70;1.70;;;;;;;9.84;57.75;100158.09;5014820;28;20747;-77
2022/11/21 07:34:42;;;;;;;2.20;1.60;;;;;;;9.80;58.40;100164.75;5033571;28;20751;-78
2022/11/21 07:37:07;;;;;;;2.90;1.70;;;;;;;9.89;58.85;100166.31;5031569;28;20404;-78
2022/11/21 07:39:33;;;;;;;1.93;1.33;;;;;;;9.90;57.65;100175.06;5050765;28;20895;-78
2022/11/21 07:41:59;;;;;;;1.45;0.90;;;;;;;9.81;57.88;100173.50;5049680;28;20505;-79
2022/11/21 07:44:24;;;;;;;3.83;1.15;;;;;;;9.78;57.59;100166.75;5033611;28;20410;-79
2022/11/21 07:46:54;;;;;;;2.00;1.00;;;;;;;9.42;57.63;100161.22;5015096;28;20386;-78
2022/11/21 07:49:19;;;;;;;1.83;1.00;;;;;;;9.19;58.47;100162.84;5033475;28;20711;-79
2022/11/21 07:51:45;;;;;;;1.85;0.90;;;;;;;9.22;57.93;100164.34;5035207;28;20866;-78
2022/11/21 07:54:10;;;;;;;1.00;0.90;;;;;;;9.37;57.57;100173.16;5033608;28;20456;-78
2022/11/21 07:56:35;;;;;;;2.13;1.30;;;;;;;9.42;58.09;100174.44;5033737;28;20405;-78
2022/11/21 07:59:01;;;;;;;2.70;1.53;;;;;;;9.39;57.58;100172.97;5033211;28;20394;-78
2022/11/21 08:01:26;;;;;;;1.80;1.10;;;;;;;9.22;57.24;100182.00;5038349;28;20873;-77
2022/11/21 08:03:52;;;;;;;3.20;1.30;;;;;;;9.45;58.38;100180.22;5052275;28;20399;-79
2022/11/21 08:06:17;;;;;;;1.93;1.10;;;;;;;9.70;57.58;100180.03;5052353;28;20837;-77
2022/11/21 08:08:43;;;;;;;1.83;1.10;;;;;;;9.93;58.00;100193.25;5049999;28;20411;-77
2022/11/21 08:11:08;;;;;;;2.63;1.05;;;;;;;9.83;57.45;100201.47;5048492;28;20893;-77
2022/11/21 08:13:34;;;;;;;1.40;1.10;;;;;;;9.77;57.90;100197.69;5031488;28;20421;-77
2022/11/21 08:16:03;;;;;;;5.50;1.17;;;;;;;9.87;57.39;100194.81;5033176;28;20404;-77
2022/11/21 08:18:29;;;;;;;2.08;1.30;;;;;;;9.77;56.49;100194.22;5042378;28;20388;-76
2022/11/21 08:20:55;;;;;;;1.45;0.98;;;;;;;9.75;56.43;100191.75;5038827;28;20377;-79
2022/11/21 08:23:20;;;;;;;1.73;1.00;;;;;;;9.94;57.95;100192.28;5013567;28;20843;-78
2022/11/21 08:25:45;;;;;;;1.57;1.10;;;;;;;9.95;57.30;100207.94;5030073;28;20436;-76
2022/11/21 08:28:12;;;;;;;1.73;1.30;;;;;;;10.09;57.11;100187.00;5033188;28;20387;-79
2022/11/21 08:30:38;;;;;;;1.95;1.05;;;;;;;10.29;57.15;100192.59;5030570;28;20893;-78
2022/11/21 08:33:04;;;;;;;1.52;1.10;;;;;;;10.25;56.15;100194.78;5029762;28;20401;-77
2022/11/21 08:35:30;;;;;;;1.20;0.98;;;;;;;10.22;55.95;100196.97;5031162;28;20414;-77
2022/11/21 08:40:41;;;;;;;2.22;1.50;;;;;;;10.12;55.64;100207.84;5031976;28;20413;-77
2022/11/21 08:43:08;;;;;;;3.83;1.85;;;;;;;9.97;55.20;100212.25;5040014;28;20394;-78
2022/11/21 08:45:35;;;;;;;2.05;1.45;;;;;;;9.70;55.63;100214.44;5028945;28;20397;-78
2022/11/21 08:48:02;;;;;;;1.83;1.52;;;;;;;9.84;55.24;100226.91;5019299;28;20390;-77
2022/11/21 08:50:27;;;;;;;1.77;1.27;;;;;;;9.84;54.77;100231.41;5047915;28;20988;-77
2022/11/21 08:52:59;;;;;;;3.33;1.95;;;;;;;10.06;55.41;100224.44;5036300;28;20383;-80
2022/11/21 08:55:24;;;;;;;1.60;1.40;;;;;;;10.26;55.45;100238.84;5032670;28;20441;-77
2022/11/21 08:57:50;;;;;;;1.50;1.20;;;;;;;10.29;54.49;100227.03;5023324;28;21760;-78
2022/11/21 09:00:15;;;;;;;1.02;0.80;;;;;;;9.95;54.03;100230.97;5034762;28;20400;-77
2022/11/21 09:02:41;;;;;;;22.47;12.03;;;;;;;10.24;55.43;100238.16;5031194;28;20473;-78
2022/11/21 09:05:08;;;;;;;2.80;1.60;;;;;;;10.39;54.35;100246.19;5036592;28;20365;-78
2022/11/21 09:07:33;;;;;;;3.08;1.92;;;;;;;10.54;55.44;100237.44;5042212;28;20390;-78
2022/11/21 09:09:59;;;;;;;1.30;1.10;;;;;;;10.27;54.42;100255.53;5037927;28;20487;-78
2022/11/21 09:12:24;;;;;;;8.80;6.10;;;;;;;10.35;54.73;100263.44;5017081;28;20476;-80
2022/11/21 09:20:18;;;;;;;2.38;1.58;;;;;;;10.59;54.90;100262.41;5037980;28;20442;-80
2022/11/21 09:22:43;;;;;;;1.80;1.30;;;;;;;10.43;54.13;100268.66;5041473;28;20390;-77
2022/11/21 09:25:09;;;;;;;3.70;2.45;;;;;;;10.32;54.22;100271.75;5035422;28;20762;-78
2022/11/21 09:27:34;;;;;;;2.37;1.50;;;;;;;10.38;54.04;100254.31;5038070;28;20413;-78
2022/11/21 09:30:00;;;;;;;5.30;3.37;;;;;;;10.25;53.54;100260.19;5036273;28;20941;-81
2022/11/21 09:32:25;;;;;;;2.73;2.23;;;;;;;10.46;53.45;100265.66;5017117;28;20449;-78
2022/11/21 09:34:51;;;;;;;2.07;1.40;;;;;;;10.23;53.78;100259.56;5036931;28;20414;-78
2022/11/21 09:37:16;;;;;;;2.15;1.27;;;;;;;10.32;54.30;100251.38;5023262;28;20410;-78
2022/11/21 09:39:42;;;;;;;1.67;1.30;;;;;;;10.53;53.76;100244.56;5043844;28;20397;-77
2022/11/21 09:42:13;;;;;;;1.93;1.33;;;;;;;10.62;53.71;100230.19;5036173;28;20482;-77
2022/11/21 09:44:52;;;;;;;1.60;1.20;;;;;;;10.59;53.41;100243.00;5033476;28;20379;-77
2022/11/21 09:47:28;;;;;;;2.08;1.45;;;;;;;10.56;53.58;100246.84;5040956;28;20443;-78
2022/11/21 09:50:05;;;;;;;2.10;1.33;;;;;;;10.70;53.26;100248.69;5036656;28;20379;-77
2022/11/21 09:52:46;;;;;;;8.90;3.60;;;;;;;10.66;53.29;100254.53;5038356;28;20421;-77
2022/11/21 09:55:25;;;;;;;2.80;1.40;;;;;;;10.67;53.23;100256.19;5033399;28;20946;-79
2022/11/21 09:57:51;;;;;;;2.38;1.50;;;;;;;10.68;53.38;100250.69;5037428;28;20402;-76
2022/11/21 10:00:22;;;;;;;2.75;1.52;;;;;;;10.75;53.40;100250.81;5038772;28;20413;-79
2022/11/21 10:02:50;;;;;;;1.88;1.38;;;;;;;10.82;53.96;100259.66;5036931;28;20513;-79
2022/11/21 10:05:19;;;;;;;1.73;1.20;;;;;;;10.85;52.83;100255.81;5034852;28;21884;-78
2022/11/21 10:07:45;;;;;;;2.70;1.80;;;;;;;10.98;53.96;100260.47;5034347;28;20406;-78
2022/11/21 10:10:53;;;;;;;1.93;1.30;;;;;;;10.85;52.38;100261.13;5036995;28;20397;-78
2022/11/21 10:13:25;;;;;;;2.03;1.50;;;;;;;10.74;52.04;100256.28;5002050;28;20486;-77
2022/11/21 10:16:12;;;;;;;2.17;1.20;;;;;;;10.95;51.84;100256.38;5047398;28;20414;-78
2022/11/21 10:19:06;;;;;;;2.33;1.50;;;;;;;11.00;52.15;100248.69;5020468;28;20425;-78
2022/11/21 10:21:54;;;;;;;3.42;2.45;;;;;;;10.84;50.86;100241.75;5042693;28;20381;-81
2022/11/21 10:24:29;;;;;;;2.20;1.85;;;;;;;11.10;50.91;100243.09;5032363;28;20767;-78
2022/11/21 10:27:14;;;;;;;3.47;1.10;;;;;;;11.37;51.64;100243.41;5030450;28;20382;-81
2022/11/21 10:30:09;;;;;;;1.85;1.00;;;;;;;10.93;49.47;100247.78;5043352;28;20421;-80
2022/11/21 10:32:42;;;;;;;1.65;1.10;;;;;;;10.64;50.40;100243.28;5032426;28;20424;-79
2022/11/21 10:35:13;;;;;;;1.50;0.90;;;;;;;10.70;50.46;100243.38;5059363;28;20748;-79
2022/11/21 10:37:48;;;;;;;3.28;1.00;;;;;;;10.93;49.69;100249.59;5046960;28;20419;-80
2022/11/21 10:40:41;;;;;;;1.85;1.33;;;;;;;10.92;48.85;100258.56;5041134;28;20409;-79
2022/11/21 10:46:04;;;;;;;4.82;2.83;;;;;;;11.18;50.03;100232.41;5035001;28;20473;-80
2022/11/21 10:48:29;;;;;;;4.90;3.60;;;;;;;11.36;50.25;100213.41;5040017;28;20942;-82
2022/11/21 10:51:50;;;;;;;17.10;15.60;;;;;;;11.26;49.87;100229.63;5021863;28;20417;-80
2022/11/21 10:54:31;;;;;;;2.72;1.40;;;;;;;11.25;48.99;100237.75;4988957;28;20414;-79
2022/11/21 10:57:14;;;;;;;2.55;1.35;;;;;;;11.44;48.99;100254.94;5035563;28;20378;-81
2022/11/21 10:59:39;;;;;;;1.30;1.08;;;;;;;11.29;48.89;100242.50;5034149;28;20382;-79
2022/11/21 11:02:11;;;;;;;1.33;1.03;;;;;;;11.26;49.13;100240.22;5045244;28;20399;-81
2022/11/21 11:04:36;;;;;;;2.40;1.70;;;;;;;11.16;48.77;100239.69;5050389;28;20391;-78
2022/11/21 11:07:25;;;;;;;1.17;1.08;;;;;;;11.25;48.92;100233.28;5033644;28;20390;-80
2022/11/21 11:09:51;;;;;;;1.60;1.50;;;;;;;11.19;49.12;100230.56;5037503;28;20437;-78
2022/11/21 11:15:25;;;;;;;2.22;1.80;;;;;;;11.27;48.60;100220.66;5029631;28;20414;-80
2022/11/21 11:17:55;;;;;;;2.05;1.30;;;;;;;11.01;48.68;100199.94;5036004;28;20375;-79
2022/11/21 11:20:32;;;;;;;2.42;2.08;;;;;;;11.02;48.58;100228.13;5017770;28;20381;-80
2022/11/21 11:22:58;;;;;;;3.60;2.65;;;;;;;11.20;48.74;100208.31;5038179;28;20392;-79
2022/11/21 11:25:23;;;;;;;5.22;4.70;;;;;;;11.39;49.00;100220.97;5048256;28;20834;-79
2022/11/21 11:27:49;;;;;;;16.17;14.67;;;;;;;11.52;49.11;100216.81;5033424;28;20905;-79
2022/11/21 11:30:16;;;;;;;1.43;1.17;;;;;;;11.47;48.27;100230.69;5047569;28;20715;-79
2022/11/21 11:32:42;;;;;;;1.53;1.00;;;;;;;11.22;47.72;100220.38;5033863;28;20398;-78
2022/11/21 11:35:16;;;;;;;1.93;1.73;;;;;;;11.25;48.62;100225.34;5035648;28;20409;-79
2022/11/21 11:37:44;;;;;;;1.90;1.15;;;;;;;11.39;48.23;100228.94;5034209;28;20482;-78
2022/11/21 11:40:28;;;;;;;3.15;1.70;;;;;;;11.54;48.35;100241.34;5036544;28;20381;-79
2022/11/21 11:48:38;;;;;;;1.75;1.30;;;;;;;11.05;48.36;100233.03;5030336;28;20440;-79
2022/11/21 11:51:21;;;;;;;3.92;2.42;;;;;;;10.96;48.88;100238.63;5041746;28;20382;-77
2022/11/21 11:53:52;;;;;;;1.40;1.30;;;;;;;10.99;48.04;100211.75;5035618;28;20384;-78
2022/11/21 11:56:28;;;;;;;2.92;1.60;;;;;;;11.21;48.61;100220.56;5032851;28;20708;-79
2022/11/21 11:59:06;;;;;;;2.20;2.00;;;;;;;11.44;48.31;100228.38;5033684;28;20393;-77
2022/11/21 12:02:02;;;;;;;1.88;1.50;;;;;;;11.18;48.66;100231.53;5017957;28;20387;-81